sensor_id;sensor_type;location;lat;lon;timestamp;temperature;humidity
23738;DHT22;12049;51.068;3.688;2022-10-22T00:02:07;17.20;99.90
23738;DHT22;12049;51.068;3.688;2022-10-22T00:04:33;17.30;99.90
23738;DHT22;12049;51.068;3.688;2022-10-22T00:06:58;17.30;99.90
23738;DHT22;12049;51.068;3.688;2022-10-22T00:09:24;17.30;99.90
23738;DHT22;12049;51.068;3.688;2022-10-22T00:11:50;17.20;99.90
23738;DHT22;12049;51.068;3.688;2022-10-22T00:14:15;17.20;99.90
23738;DHT22;12049;51.068;3.688;2022-10-22T00:16:41;17.10;99.90
23738;DHT22;12049;51.068;3.688;2022-10-22T00:19:06;17.10;99.90
23738;DHT22;12049;51.068;3.688;2022-10-22T00:21:36;17.00;99.90
23738;DHT22;12049;51.068;3.688;2022-10-22T00:24:01;17.10;99.90
23738;DHT22;12049;51.068;3.688;2022-10-22T00:26:27;17.00;99.90
23738;DHT22;12049;51.068;3.688;2022-10-22T00:28:52;17.10;99.90
23738;DHT22;12049;51.068;3.688;2022-10-22T00:31:18;17.10;99.90
23738;DHT22;12049;51.068;3.688;2022-10-22T00:33:45;17.10;99.90
23738;DHT22;12049;51.068;3.688;2022-10-22T00:36:10;17.10;99.90
23738;DHT22;12049;51.068;3.688;2022-10-22T00:38:36;17.20;99.90
23738;DHT22;12049;51.068;3.688;2022-10-22T00:41:02;17.10;99.90
23738;DHT22;12049;51.068;3.688;2022-10-22T00:43:27;17.10;99.90
23738;DHT22;12049;51.068;3.688;2022-10-22T00:45:53;17.10;99.90
23738;DHT22;12049;51.068;3.688;2022-10-22T00:48:20;17.20;99.90
23738;DHT22;12049;51.068;3.688;2022-10-22T00:53:12;17.00;99.90
23738;DHT22;12049;51.068;3.688;2022-10-22T00:55:38;17.00;99.90
23738;DHT22;12049;51.068;3.688;2022-10-22T00:58:04;17.00;99.90
23738;DHT22;12049;51.068;3.688;2022-10-22T01:00:30;17.00;99.90
23738;DHT22;12049;51.068;3.688;2022-10-22T01:02:55;17.00;99.90
23738;DHT22;12049;51.068;3.688;2022-10-22T01:05:21;17.10;99.90
23738;DHT22;12049;51.068;3.688;2022-10-22T01:07:47;17.00;99.90
23738;DHT22;12049;51.068;3.688;2022-10-22T01:10:17;17.00;99.90
23738;DHT22;12049;51.068;3.688;2022-10-22T01:18:12;17.00;99.90
23738;DHT22;12049;51.068;3.688;2022-10-22T01:25:49;17.00;99.90
23738;DHT22;12049;51.068;3.688;2022-10-22T01:31:01;17.00;99.90
23738;DHT22;12049;51.068;3.688;2022-10-22T01:33:28;17.00;99.90
23738;DHT22;12049;51.068;3.688;2022-10-22T01:35:54;17.00;99.90
23738;DHT22;12049;51.068;3.688;2022-10-22T01:38:21;17.10;99.90
23738;DHT22;12049;51.068;3.688;2022-10-22T01:40:49;17.10;99.90
23738;DHT22;12049;51.068;3.688;2022-10-22T01:43:15;17.10;99.90
23738;DHT22;12049;51.068;3.688;2022-10-22T01:45:41;17.00;99.90
23738;DHT22;12049;51.068;3.688;2022-10-22T01:53:20;16.80;99.90
23738;DHT22;12049;51.068;3.688;2022-10-22T01:56:08;16.80;99.90
23738;DHT22;12049;51.068;3.688;2022-10-22T02:04:05;16.90;99.90
23738;DHT22;12049;51.068;3.688;2022-10-22T02:06:34;16.90;99.90
23738;DHT22;12049;51.068;3.688;2022-10-22T02:09:00;16.90;99.90
23738;DHT22;12049;51.068;3.688;2022-10-22T02:11:26;16.90;99.90
23738;DHT22;12049;51.068;3.688;2022-10-22T02:13:53;16.80;99.90
23738;DHT22;12049;51.068;3.688;2022-10-22T02:16:25;16.90;99.90
23738;DHT22;12049;51.068;3.688;2022-10-22T02:18:52;16.90;99.90
23738;DHT22;12049;51.068;3.688;2022-10-22T02:21:18;16.80;99.90
23738;DHT22;12049;51.068;3.688;2022-10-22T02:23:44;16.90;99.90
23738;DHT22;12049;51.068;3.688;2022-10-22T02:31:22;16.70;99.90
23738;DHT22;12049;51.068;3.688;2022-10-22T02:33:49;16.70;99.90
23738;DHT22;12049;51.068;3.688;2022-10-22T02:36:16;16.70;99.90
23738;DHT22;12049;51.068;3.688;2022-10-22T02:38:42;16.70;99.90
23738;DHT22;12049;51.068;3.688;2022-10-22T02:41:08;16.70;99.90
23738;DHT22;12049;51.068;3.688;2022-10-22T02:43:38;16.70;99.90
23738;DHT22;12049;51.068;3.688;2022-10-22T02:46:04;16.70;99.90
23738;DHT22;12049;51.068;3.688;2022-10-22T02:48:30;16.60;99.90
23738;DHT22;12049;51.068;3.688;2022-10-22T02:50:55;16.80;99.90
23738;DHT22;12049;51.068;3.688;2022-10-22T02:53:21;16.80;99.90
23738;DHT22;12049;51.068;3.688;2022-10-22T02:55:46;16.80;99.90
23738;DHT22;12049;51.068;3.688;2022-10-22T02:58:12;16.80;99.90
23738;DHT22;12049;51.068;3.688;2022-10-22T03:00:38;16.70;99.90
23738;DHT22;12049;51.068;3.688;2022-10-22T03:03:03;16.70;99.90
23738;DHT22;12049;51.068;3.688;2022-10-22T03:05:29;16.80;99.90
23738;DHT22;12049;51.068;3.688;2022-10-22T03:07:54;16.70;99.90
23738;DHT22;12049;51.068;3.688;2022-10-22T03:10:20;16.70;99.90
23738;DHT22;12049;51.068;3.688;2022-10-22T03:12:45;16.70;99.90
23738;DHT22;12049;51.068;3.688;2022-10-22T03:15:11;16.60;99.90
23738;DHT22;12049;51.068;3.688;2022-10-22T03:17:36;16.70;99.90
23738;DHT22;12049;51.068;3.688;2022-10-22T03:20:02;16.70;99.90
23738;DHT22;12049;51.068;3.688;2022-10-22T03:22:28;16.70;99.90
23738;DHT22;12049;51.068;3.688;2022-10-22T03:24:57;16.80;99.90
23738;DHT22;12049;51.068;3.688;2022-10-22T03:27:24;16.70;99.90
23738;DHT22;12049;51.068;3.688;2022-10-22T03:29:50;16.60;99.90
23738;DHT22;12049;51.068;3.688;2022-10-22T03:32:16;16.70;99.90
23738;DHT22;12049;51.068;3.688;2022-10-22T03:34:42;16.70;99.90
23738;DHT22;12049;51.068;3.688;2022-10-22T03:37:07;16.70;99.90
23738;DHT22;12049;51.068;3.688;2022-10-22T03:39:33;16.70;99.90
23738;DHT22;12049;51.068;3.688;2022-10-22T03:42:00;16.70;99.90
23738;DHT22;12049;51.068;3.688;2022-10-22T03:44:26;16.80;99.90
23738;DHT22;12049;51.068;3.688;2022-10-22T03:46:52;16.90;99.90
23738;DHT22;12049;51.068;3.688;2022-10-22T03:49:17;16.80;99.90
23738;DHT22;12049;51.068;3.688;2022-10-22T03:51:45;16.80;99.90
23738;DHT22;12049;51.068;3.688;2022-10-22T03:54:11;16.80;99.90
23738;DHT22;12049;51.068;3.688;2022-10-22T03:56:36;16.70;99.90
23738;DHT22;12049;51.068;3.688;2022-10-22T03:59:02;16.70;99.90
23738;DHT22;12049;51.068;3.688;2022-10-22T04:01:28;16.70;99.90
23738;DHT22;12049;51.068;3.688;2022-10-22T04:03:54;16.70;99.90
23738;DHT22;12049;51.068;3.688;2022-10-22T04:06:20;16.60;99.90
23738;DHT22;12049;51.068;3.688;2022-10-22T04:08:45;16.70;99.90
23738;DHT22;12049;51.068;3.688;2022-10-22T04:11:12;16.70;99.90
23738;DHT22;12049;51.068;3.688;2022-10-22T04:13:38;16.60;99.90
23738;DHT22;12049;51.068;3.688;2022-10-22T04:16:07;16.60;99.90
23738;DHT22;12049;51.068;3.688;2022-10-22T04:18:33;16.50;99.90
23738;DHT22;12049;51.068;3.688;2022-10-22T04:20:58;16.50;99.90
23738;DHT22;12049;51.068;3.688;2022-10-22T04:23:24;16.50;99.90
23738;DHT22;12049;51.068;3.688;2022-10-22T04:25:49;16.60;99.90
23738;DHT22;12049;51.068;3.688;2022-10-22T04:28:15;16.50;99.90
23738;DHT22;12049;51.068;3.688;2022-10-22T04:30:40;16.50;99.90
23738;DHT22;12049;51.068;3.688;2022-10-22T04:33:06;16.40;99.90
23738;DHT22;12049;51.068;3.688;2022-10-22T04:35:31;16.40;99.90
23738;DHT22;12049;51.068;3.688;2022-10-22T04:37:57;16.50;99.90
23738;DHT22;12049;51.068;3.688;2022-10-22T04:40:22;16.50;99.90
23738;DHT22;12049;51.068;3.688;2022-10-22T04:42:48;16.50;99.90
23738;DHT22;12049;51.068;3.688;2022-10-22T04:45:13;16.40;99.90
23738;DHT22;12049;51.068;3.688;2022-10-22T04:47:40;16.40;99.90
23738;DHT22;12049;51.068;3.688;2022-10-22T04:50:05;16.40;99.90
23738;DHT22;12049;51.068;3.688;2022-10-22T04:52:31;16.40;99.90
23738;DHT22;12049;51.068;3.688;2022-10-22T04:54:56;16.40;99.90
23738;DHT22;12049;51.068;3.688;2022-10-22T04:57:22;16.40;99.90
23738;DHT22;12049;51.068;3.688;2022-10-22T04:59:47;16.40;99.90
23738;DHT22;12049;51.068;3.688;2022-10-22T05:02:13;16.30;99.90
23738;DHT22;12049;51.068;3.688;2022-10-22T05:04:38;16.30;99.90
23738;DHT22;12049;51.068;3.688;2022-10-22T05:07:07;16.30;99.90
23738;DHT22;12049;51.068;3.688;2022-10-22T05:09:35;16.30;99.90
23738;DHT22;12049;51.068;3.688;2022-10-22T05:12:04;16.30;99.90
23738;DHT22;12049;51.068;3.688;2022-10-22T05:14:33;16.20;99.90
23738;DHT22;12049;51.068;3.688;2022-10-22T05:16:59;16.20;99.90
23738;DHT22;12049;51.068;3.688;2022-10-22T05:19:29;16.30;99.90
23738;DHT22;12049;51.068;3.688;2022-10-22T05:21:56;16.30;99.90
23738;DHT22;12049;51.068;3.688;2022-10-22T05:24:22;16.30;99.90
23738;DHT22;12049;51.068;3.688;2022-10-22T05:26:48;16.30;99.90
23738;DHT22;12049;51.068;3.688;2022-10-22T05:29:14;16.40;99.90
23738;DHT22;12049;51.068;3.688;2022-10-22T05:31:40;16.30;99.90
23738;DHT22;12049;51.068;3.688;2022-10-22T05:34:05;16.30;99.90
23738;DHT22;12049;51.068;3.688;2022-10-22T05:36:31;16.40;99.90
23738;DHT22;12049;51.068;3.688;2022-10-22T05:38:56;16.40;99.90
23738;DHT22;12049;51.068;3.688;2022-10-22T05:41:23;16.40;99.90
23738;DHT22;12049;51.068;3.688;2022-10-22T05:43:48;16.50;99.90
23738;DHT22;12049;51.068;3.688;2022-10-22T05:46:15;16.60;99.90
23738;DHT22;12049;51.068;3.688;2022-10-22T05:48:41;16.60;99.90
23738;DHT22;12049;51.068;3.688;2022-10-22T05:51:10;16.60;99.90
23738;DHT22;12049;51.068;3.688;2022-10-22T05:53:37;16.50;99.90
23738;DHT22;12049;51.068;3.688;2022-10-22T05:56:04;16.60;99.90
23738;DHT22;12049;51.068;3.688;2022-10-22T05:58:30;16.60;99.90
23738;DHT22;12049;51.068;3.688;2022-10-22T06:01:03;16.60;99.90
23738;DHT22;12049;51.068;3.688;2022-10-22T06:03:28;16.70;99.90
23738;DHT22;12049;51.068;3.688;2022-10-22T06:05:56;16.60;99.90
23738;DHT22;12049;51.068;3.688;2022-10-22T06:08:23;16.70;99.90
23738;DHT22;12049;51.068;3.688;2022-10-22T06:10:49;16.70;99.90
23738;DHT22;12049;51.068;3.688;2022-10-22T06:13:14;16.60;99.90
23738;DHT22;12049;51.068;3.688;2022-10-22T06:15:40;16.60;99.90
23738;DHT22;12049;51.068;3.688;2022-10-22T06:18:05;16.80;99.90
23738;DHT22;12049;51.068;3.688;2022-10-22T06:20:32;16.70;99.90
23738;DHT22;12049;51.068;3.688;2022-10-22T06:22:58;16.60;99.90
23738;DHT22;12049;51.068;3.688;2022-10-22T06:25:23;16.60;99.90
23738;DHT22;12049;51.068;3.688;2022-10-22T06:27:49;16.60;99.90
23738;DHT22;12049;51.068;3.688;2022-10-22T06:30:15;16.70;99.90
23738;DHT22;12049;51.068;3.688;2022-10-22T06:32:41;16.70;99.90
23738;DHT22;12049;51.068;3.688;2022-10-22T06:35:06;16.80;99.90
23738;DHT22;12049;51.068;3.688;2022-10-22T06:37:32;16.80;99.90
23738;DHT22;12049;51.068;3.688;2022-10-22T06:39:57;17.00;99.90
23738;DHT22;12049;51.068;3.688;2022-10-22T06:42:23;16.90;99.90
23738;DHT22;12049;51.068;3.688;2022-10-22T06:44:48;17.00;99.90
23738;DHT22;12049;51.068;3.688;2022-10-22T06:47:14;16.90;99.90
23738;DHT22;12049;51.068;3.688;2022-10-22T06:49:42;16.80;99.90
23738;DHT22;12049;51.068;3.688;2022-10-22T06:52:08;16.80;99.90
23738;DHT22;12049;51.068;3.688;2022-10-22T06:54:34;16.80;99.90
23738;DHT22;12049;51.068;3.688;2022-10-22T06:57:00;16.80;99.90
23738;DHT22;12049;51.068;3.688;2022-10-22T06:59:25;16.80;99.90
23738;DHT22;12049;51.068;3.688;2022-10-22T07:01:51;16.90;99.90
23738;DHT22;12049;51.068;3.688;2022-10-22T07:04:16;16.90;99.90
23738;DHT22;12049;51.068;3.688;2022-10-22T07:06:42;16.80;99.90
23738;DHT22;12049;51.068;3.688;2022-10-22T07:09:07;16.70;99.90
23738;DHT22;12049;51.068;3.688;2022-10-22T07:11:38;16.80;99.90
23738;DHT22;12049;51.068;3.688;2022-10-22T07:14:03;16.90;99.90
23738;DHT22;12049;51.068;3.688;2022-10-22T07:16:29;17.00;99.90
23738;DHT22;12049;51.068;3.688;2022-10-22T07:18:54;17.00;99.90
23738;DHT22;12049;51.068;3.688;2022-10-22T07:21:20;17.10;99.90
23738;DHT22;12049;51.068;3.688;2022-10-22T07:23:47;17.20;99.90
23738;DHT22;12049;51.068;3.688;2022-10-22T07:26:13;17.40;99.90
23738;DHT22;12049;51.068;3.688;2022-10-22T07:28:39;17.70;99.90
23738;DHT22;12049;51.068;3.688;2022-10-22T07:31:06;17.80;99.90
23738;DHT22;12049;51.068;3.688;2022-10-22T07:33:32;18.10;99.90
23738;DHT22;12049;51.068;3.688;2022-10-22T07:35:58;18.20;99.90
23738;DHT22;12049;51.068;3.688;2022-10-22T07:38:24;18.40;99.90
23738;DHT22;12049;51.068;3.688;2022-10-22T07:40:49;18.60;99.90
23738;DHT22;12049;51.068;3.688;2022-10-22T07:43:15;18.80;99.90
23738;DHT22;12049;51.068;3.688;2022-10-22T07:45:40;19.00;99.90
23738;DHT22;12049;51.068;3.688;2022-10-22T07:48:06;18.80;99.90
23738;DHT22;12049;51.068;3.688;2022-10-22T07:50:32;18.70;99.90
23738;DHT22;12049;51.068;3.688;2022-10-22T07:52:57;18.70;99.90
23738;DHT22;12049;51.068;3.688;2022-10-22T07:55:23;18.80;99.90
23738;DHT22;12049;51.068;3.688;2022-10-22T07:57:48;18.80;99.90
23738;DHT22;12049;51.068;3.688;2022-10-22T08:00:14;19.00;99.90
23738;DHT22;12049;51.068;3.688;2022-10-22T08:02:39;19.10;99.90
23738;DHT22;12049;51.068;3.688;2022-10-22T08:05:05;19.10;99.90
23738;DHT22;12049;51.068;3.688;2022-10-22T08:07:31;18.90;99.90
23738;DHT22;12049;51.068;3.688;2022-10-22T08:09:56;18.90;99.90
23738;DHT22;12049;51.068;3.688;2022-10-22T08:12:22;19.10;99.90
23738;DHT22;12049;51.068;3.688;2022-10-22T08:14:47;19.30;99.90
23738;DHT22;12049;51.068;3.688;2022-10-22T08:17:14;19.60;99.90
23738;DHT22;12049;51.068;3.688;2022-10-22T08:19:39;19.70;99.90
23738;DHT22;12049;51.068;3.688;2022-10-22T08:22:05;19.90;99.90
23738;DHT22;12049;51.068;3.688;2022-10-22T08:24:30;20.10;99.90
23738;DHT22;12049;51.068;3.688;2022-10-22T08:26:56;20.30;99.90
23738;DHT22;12049;51.068;3.688;2022-10-22T08:29:22;20.20;99.90
23738;DHT22;12049;51.068;3.688;2022-10-22T08:31:48;20.00;99.90
23738;DHT22;12049;51.068;3.688;2022-10-22T08:34:13;19.90;99.90
23738;DHT22;12049;51.068;3.688;2022-10-22T08:36:39;20.00;99.90
23738;DHT22;12049;51.068;3.688;2022-10-22T08:39:04;19.90;99.90
23738;DHT22;12049;51.068;3.688;2022-10-22T08:41:30;19.70;99.90
23738;DHT22;12049;51.068;3.688;2022-10-22T08:49:20;20.20;99.90
23738;DHT22;12049;51.068;3.688;2022-10-22T08:51:46;20.50;99.90
23738;DHT22;12049;51.068;3.688;2022-10-22T08:54:21;20.60;99.90
23738;DHT22;12049;51.068;3.688;2022-10-22T08:56:57;20.80;99.90
23738;DHT22;12049;51.068;3.688;2022-10-22T08:59:46;20.90;99.90
23738;DHT22;12049;51.068;3.688;2022-10-22T09:02:45;20.90;99.90
23738;DHT22;12049;51.068;3.688;2022-10-22T09:07:39;20.90;99.90
23738;DHT22;12049;51.068;3.688;2022-10-22T09:10:04;21.10;99.90
23738;DHT22;12049;51.068;3.688;2022-10-22T09:12:30;21.20;99.90
23738;DHT22;12049;51.068;3.688;2022-10-22T09:14:56;21.40;99.90
23738;DHT22;12049;51.068;3.688;2022-10-22T09:17:43;21.60;99.90
23738;DHT22;12049;51.068;3.688;2022-10-22T09:20:19;22.30;99.90
23738;DHT22;12049;51.068;3.688;2022-10-22T09:25:35;24.80;99.90
23738;DHT22;12049;51.068;3.688;2022-10-22T09:28:01;25.90;99.90
23738;DHT22;12049;51.068;3.688;2022-10-22T09:30:28;26.00;99.90
23738;DHT22;12049;51.068;3.688;2022-10-22T09:33:05;26.10;99.90
23738;DHT22;12049;51.068;3.688;2022-10-22T09:35:33;26.00;99.90
23738;DHT22;12049;51.068;3.688;2022-10-22T09:38:01;25.80;99.90
23738;DHT22;12049;51.068;3.688;2022-10-22T09:40:30;25.50;99.90
23738;DHT22;12049;51.068;3.688;2022-10-22T09:42:55;25.70;99.90
23738;DHT22;12049;51.068;3.688;2022-10-22T09:45:22;26.10;99.90
23738;DHT22;12049;51.068;3.688;2022-10-22T09:47:48;26.40;99.90
23738;DHT22;12049;51.068;3.688;2022-10-22T09:50:23;27.10;99.90
23738;DHT22;12049;51.068;3.688;2022-10-22T09:55:37;28.70;99.90
23738;DHT22;12049;51.068;3.688;2022-10-22T09:58:02;28.90;99.90
23738;DHT22;12049;51.068;3.688;2022-10-22T10:00:29;28.90;99.90
23738;DHT22;12049;51.068;3.688;2022-10-22T10:02:58;29.10;99.90
23738;DHT22;12049;51.068;3.688;2022-10-22T10:05:30;29.90;99.90
23738;DHT22;12049;51.068;3.688;2022-10-22T10:08:10;30.10;99.90
23738;DHT22;12049;51.068;3.688;2022-10-22T10:16:20;28.20;99.90
23738;DHT22;12049;51.068;3.688;2022-10-22T10:21:15;27.20;99.90
23738;DHT22;12049;51.068;3.688;2022-10-22T10:34:13;26.30;99.90
23738;DHT22;12049;51.068;3.688;2022-10-22T10:36:44;25.70;99.90
23738;DHT22;12049;51.068;3.688;2022-10-22T10:44:35;24.20;99.90
23738;DHT22;12049;51.068;3.688;2022-10-22T10:49:30;24.40;99.90
23738;DHT22;12049;51.068;3.688;2022-10-22T10:57:07;25.80;99.90
23738;DHT22;12049;51.068;3.688;2022-10-22T11:06:54;27.10;99.90
23738;DHT22;12049;51.068;3.688;2022-10-22T11:09:29;27.30;99.90
23738;DHT22;12049;51.068;3.688;2022-10-22T11:12:02;27.50;99.90
23738;DHT22;12049;51.068;3.688;2022-10-22T11:14:30;27.80;99.90
23738;DHT22;12049;51.068;3.688;2022-10-22T11:19:24;28.40;99.90
23738;DHT22;12049;51.068;3.688;2022-10-22T11:27:01;29.10;99.90
23738;DHT22;12049;51.068;3.688;2022-10-22T11:29:34;29.10;99.90
23738;DHT22;12049;51.068;3.688;2022-10-22T11:32:03;29.20;99.90
23738;DHT22;12049;51.068;3.688;2022-10-22T11:34:33;29.30;99.90
23738;DHT22;12049;51.068;3.688;2022-10-22T11:37:01;29.60;99.90
23738;DHT22;12049;51.068;3.688;2022-10-22T11:39:32;29.70;99.90
23738;DHT22;12049;51.068;3.688;2022-10-22T11:41:59;29.70;99.90
23738;DHT22;12049;51.068;3.688;2022-10-22T11:44:26;29.50;99.90
23738;DHT22;12049;51.068;3.688;2022-10-22T11:46:56;29.50;99.90
23738;DHT22;12049;51.068;3.688;2022-10-22T11:49:23;29.50;99.90
23738;DHT22;12049;51.068;3.688;2022-10-22T11:51:49;28.80;99.90
23738;DHT22;12049;51.068;3.688;2022-10-22T11:54:28;28.00;99.90
23738;DHT22;12049;51.068;3.688;2022-10-22T11:59:39;26.40;99.90
23738;DHT22;12049;51.068;3.688;2022-10-22T12:04:49;24.90;99.90
23738;DHT22;12049;51.068;3.688;2022-10-22T12:07:29;24.30;99.90
23738;DHT22;12049;51.068;3.688;2022-10-22T12:09:56;23.90;99.90
23738;DHT22;12049;51.068;3.688;2022-10-22T12:12:22;23.50;99.90
23738;DHT22;12049;51.068;3.688;2022-10-22T12:15:19;23.20;99.90
23738;DHT22;12049;51.068;3.688;2022-10-22T12:17:35;23.20;99.90
23738;DHT22;12049;51.068;3.688;2022-10-22T12:20:04;23.60;99.90
23738;DHT22;12049;51.068;3.688;2022-10-22T12:22:32;24.00;99.90
23738;DHT22;12049;51.068;3.688;2022-10-22T12:24:59;24.10;99.90
23738;DHT22;12049;51.068;3.688;2022-10-22T12:27:37;24.30;99.90
23738;DHT22;12049;51.068;3.688;2022-10-22T12:30:22;24.50;99.90
23738;DHT22;12049;51.068;3.688;2022-10-22T12:32:52;24.80;99.90
23738;DHT22;12049;51.068;3.688;2022-10-22T12:35:20;24.70;99.90
23738;DHT22;12049;51.068;3.688;2022-10-22T12:38:06;24.40;99.90
23738;DHT22;12049;51.068;3.688;2022-10-22T12:40:33;24.10;99.90
23738;DHT22;12049;51.068;3.688;2022-10-22T12:43:00;24.00;99.90
23738;DHT22;12049;51.068;3.688;2022-10-22T12:45:27;24.10;99.90
23738;DHT22;12049;51.068;3.688;2022-10-22T12:47:56;24.10;99.90
23738;DHT22;12049;51.068;3.688;2022-10-22T12:50:24;24.10;99.90
23738;DHT22;12049;51.068;3.688;2022-10-22T12:52:51;23.70;99.90
23738;DHT22;12049;51.068;3.688;2022-10-22T12:55:18;23.60;99.90
23738;DHT22;12049;51.068;3.688;2022-10-22T12:57:47;23.60;99.90
23738;DHT22;12049;51.068;3.688;2022-10-22T13:00:23;23.50;99.90
23738;DHT22;12049;51.068;3.688;2022-10-22T13:02:49;23.50;99.90
23738;DHT22;12049;51.068;3.688;2022-10-22T13:05:21;23.30;99.90
23738;DHT22;12049;51.068;3.688;2022-10-22T13:07:48;23.00;99.90
23738;DHT22;12049;51.068;3.688;2022-10-22T13:10:25;22.80;99.90
23738;DHT22;12049;51.068;3.688;2022-10-22T13:12:55;22.70;99.90
23738;DHT22;12049;51.068;3.688;2022-10-22T13:18:00;22.60;99.90
23738;DHT22;12049;51.068;3.688;2022-10-22T13:20:26;22.70;99.90
23738;DHT22;12049;51.068;3.688;2022-10-22T13:23:01;22.50;99.90
23738;DHT22;12049;51.068;3.688;2022-10-22T13:25:32;22.40;99.90
23738;DHT22;12049;51.068;3.688;2022-10-22T13:27:59;22.40;99.90
23738;DHT22;12049;51.068;3.688;2022-10-22T13:30:26;22.60;99.90
23738;DHT22;12049;51.068;3.688;2022-10-22T13:32:53;22.90;99.90
23738;DHT22;12049;51.068;3.688;2022-10-22T13:35:20;22.80;99.90
23738;DHT22;12049;51.068;3.688;2022-10-22T13:37:46;22.80;99.90
23738;DHT22;12049;51.068;3.688;2022-10-22T13:40:12;22.70;99.90
23738;DHT22;12049;51.068;3.688;2022-10-22T13:42:38;22.70;99.90
23738;DHT22;12049;51.068;3.688;2022-10-22T13:45:04;22.60;99.90
23738;DHT22;12049;51.068;3.688;2022-10-22T13:47:30;22.30;99.90
23738;DHT22;12049;51.068;3.688;2022-10-22T13:49:57;22.20;99.90
23738;DHT22;12049;51.068;3.688;2022-10-22T13:52:26;22.10;99.90
23738;DHT22;12049;51.068;3.688;2022-10-22T13:54:52;22.00;99.90
23738;DHT22;12049;51.068;3.688;2022-10-22T13:57:18;21.90;99.90
23738;DHT22;12049;51.068;3.688;2022-10-22T13:59:43;21.80;99.90
23738;DHT22;12049;51.068;3.688;2022-10-22T14:02:10;21.70;99.90
23738;DHT22;12049;51.068;3.688;2022-10-22T14:04:37;21.80;99.90
23738;DHT22;12049;51.068;3.688;2022-10-22T14:07:03;21.80;99.90
23738;DHT22;12049;51.068;3.688;2022-10-22T14:09:32;21.80;99.90
23738;DHT22;12049;51.068;3.688;2022-10-22T14:11:57;21.80;99.90
23738;DHT22;12049;51.068;3.688;2022-10-22T14:14:23;21.60;99.90
23738;DHT22;12049;51.068;3.688;2022-10-22T14:16:48;21.50;99.90
23738;DHT22;12049;51.068;3.688;2022-10-22T14:19:14;21.50;99.90
23738;DHT22;12049;51.068;3.688;2022-10-22T14:21:40;21.40;99.90
23738;DHT22;12049;51.068;3.688;2022-10-22T14:24:07;21.50;99.90
23738;DHT22;12049;51.068;3.688;2022-10-22T14:26:33;21.50;99.90
23738;DHT22;12049;51.068;3.688;2022-10-22T14:28:59;21.50;99.90
23738;DHT22;12049;51.068;3.688;2022-10-22T14:31:25;21.40;99.90
23738;DHT22;12049;51.068;3.688;2022-10-22T14:33:50;21.40;99.90
23738;DHT22;12049;51.068;3.688;2022-10-22T14:36:17;21.40;99.90
23738;DHT22;12049;51.068;3.688;2022-10-22T14:38:43;21.30;99.90
23738;DHT22;12049;51.068;3.688;2022-10-22T14:41:13;21.20;99.90
23738;DHT22;12049;51.068;3.688;2022-10-22T14:43:40;21.20;99.90
23738;DHT22;12049;51.068;3.688;2022-10-22T14:46:07;21.20;99.90
23738;DHT22;12049;51.068;3.688;2022-10-22T14:48:32;21.20;99.90
23738;DHT22;12049;51.068;3.688;2022-10-22T14:50:58;21.10;99.90
23738;DHT22;12049;51.068;3.688;2022-10-22T14:53:23;21.10;99.90
23738;DHT22;12049;51.068;3.688;2022-10-22T14:55:49;21.20;99.90
23738;DHT22;12049;51.068;3.688;2022-10-22T14:58:15;21.20;99.90
23738;DHT22;12049;51.068;3.688;2022-10-22T15:00:41;21.00;99.90
23738;DHT22;12049;51.068;3.688;2022-10-22T15:03:07;21.00;99.90
23738;DHT22;12049;51.068;3.688;2022-10-22T15:05:32;21.00;99.90
23738;DHT22;12049;51.068;3.688;2022-10-22T15:07:58;20.80;99.90
23738;DHT22;12049;51.068;3.688;2022-10-22T15:10:24;20.70;99.90
23738;DHT22;12049;51.068;3.688;2022-10-22T15:12:50;20.70;99.90
23738;DHT22;12049;51.068;3.688;2022-10-22T15:15:15;20.60;99.90
23738;DHT22;12049;51.068;3.688;2022-10-22T15:17:41;20.60;99.90
23738;DHT22;12049;51.068;3.688;2022-10-22T15:20:07;20.60;99.90
23738;DHT22;12049;51.068;3.688;2022-10-22T15:22:32;20.50;99.90
23738;DHT22;12049;51.068;3.688;2022-10-22T15:25:02;20.50;99.90
23738;DHT22;12049;51.068;3.688;2022-10-22T15:27:28;20.50;99.90
23738;DHT22;12049;51.068;3.688;2022-10-22T15:29:54;20.40;99.90
23738;DHT22;12049;51.068;3.688;2022-10-22T15:32:23;20.50;99.90
23738;DHT22;12049;51.068;3.688;2022-10-22T15:34:50;20.40;99.90
23738;DHT22;12049;51.068;3.688;2022-10-22T15:37:16;20.40;99.90
23738;DHT22;12049;51.068;3.688;2022-10-22T15:39:41;20.30;99.90
23738;DHT22;12049;51.068;3.688;2022-10-22T15:42:07;20.30;99.90
23738;DHT22;12049;51.068;3.688;2022-10-22T15:44:33;20.40;99.90
23738;DHT22;12049;51.068;3.688;2022-10-22T15:46:59;20.30;99.90
23738;DHT22;12049;51.068;3.688;2022-10-22T15:49:27;20.30;99.90
23738;DHT22;12049;51.068;3.688;2022-10-22T15:51:53;20.30;99.90
23738;DHT22;12049;51.068;3.688;2022-10-22T15:54:20;20.20;99.90
23738;DHT22;12049;51.068;3.688;2022-10-22T15:56:46;20.10;99.90
23738;DHT22;12049;51.068;3.688;2022-10-22T15:59:12;20.10;99.90
23738;DHT22;12049;51.068;3.688;2022-10-22T16:01:38;20.20;99.90
23738;DHT22;12049;51.068;3.688;2022-10-22T16:04:04;20.10;99.90
23738;DHT22;12049;51.068;3.688;2022-10-22T16:06:40;20.10;99.90
23738;DHT22;12049;51.068;3.688;2022-10-22T16:09:07;20.00;99.90
23738;DHT22;12049;51.068;3.688;2022-10-22T16:11:33;19.90;99.90
23738;DHT22;12049;51.068;3.688;2022-10-22T16:13:59;19.90;99.90
23738;DHT22;12049;51.068;3.688;2022-10-22T16:16:25;19.80;99.90
23738;DHT22;12049;51.068;3.688;2022-10-22T16:18:51;19.80;99.90
23738;DHT22;12049;51.068;3.688;2022-10-22T16:21:18;19.70;99.90
23738;DHT22;12049;51.068;3.688;2022-10-22T16:23:44;19.60;99.90
23738;DHT22;12049;51.068;3.688;2022-10-22T16:26:09;19.60;99.90
23738;DHT22;12049;51.068;3.688;2022-10-22T16:28:35;19.50;99.90
23738;DHT22;12049;51.068;3.688;2022-10-22T16:31:01;19.50;99.90
23738;DHT22;12049;51.068;3.688;2022-10-22T16:33:27;19.40;99.90
23738;DHT22;12049;51.068;3.688;2022-10-22T16:35:52;19.40;99.90
23738;DHT22;12049;51.068;3.688;2022-10-22T16:38:18;19.30;99.90
23738;DHT22;12049;51.068;3.688;2022-10-22T16:40:43;19.30;99.90
23738;DHT22;12049;51.068;3.688;2022-10-22T16:43:09;19.30;99.90
23738;DHT22;12049;51.068;3.688;2022-10-22T16:45:34;19.20;99.90
23738;DHT22;12049;51.068;3.688;2022-10-22T16:48:00;19.20;99.90
23738;DHT22;12049;51.068;3.688;2022-10-22T16:50:25;19.10;99.90
23738;DHT22;12049;51.068;3.688;2022-10-22T16:52:51;19.10;99.90
23738;DHT22;12049;51.068;3.688;2022-10-22T16:55:16;19.10;99.90
23738;DHT22;12049;51.068;3.688;2022-10-22T16:57:42;19.10;99.90
23738;DHT22;12049;51.068;3.688;2022-10-22T17:00:08;19.10;99.90
23738;DHT22;12049;51.068;3.688;2022-10-22T17:02:33;19.10;99.90
23738;DHT22;12049;51.068;3.688;2022-10-22T17:05:01;19.10;99.90
23738;DHT22;12049;51.068;3.688;2022-10-22T17:07:27;19.00;99.90
23738;DHT22;12049;51.068;3.688;2022-10-22T17:09:52;19.00;99.90